Prestwich, United Kingdom
Current Conditions -  °F | °C
As of 9:20 AM on Saturday 20 Dec 2014 (Local Time) from EGCC Reporting Station
Rain Showers Rain Showers  
Wind Chill: 38°   Ceiling: 2400
Heat Index: 45°   Visibility: 6mi
Dew Point: 39°   Wind: 14mph
Humidity: 81%   Direction: 290°WNW
Pressure: 30.18"   Gusts: NA
Location:  53.53°N, 2.28°W
Report Text: EGCC 200920Z 29012KT 9999 5000NE -SHRA FEW015 BKN024 07/04 Q1022 RESHRA TEMPO SHRA
Loading
Personal Weather Stations






























Interactive Weather Map New forecast layout! Learn more

10-Day Weather Forecast

Advertisements
Track Severe Weather on mobile